Terminal Aerodrome Forecast
Issued by NWS Brownsville, TX

Home | Current Version | Previous Version | Text Only | Print | Product List | Glossary On
Versions: 1 2 3 4 5 6 7 8 9 10 11 12 13 14
000
FTUS44 KBRO 050521
TAFMFE
TAF
KMFE 050521Z 0506/0606 14010KT P6SM SKC
     FM051400 16016G22KT P6SM BKN025
     FM051700 16019G25KT P6SM SCT050
     FM060200 14013KT P6SM FEW030=

USA.gov is the U.S. government's official web portal to all federal, state and local government web resources and services.